Terminal Aerodrome Forecast
Issued by NWS

Home | Current Version | Previous Version | Text Only | Print | Product List | Glossary On
Versions: 1 2 3 4 5 6 7 8 9 10 11 12 13
000
FTUS46 KSTO 261400 AAA
TAFMHR
TAF AMD
KMHR 261409Z 2614/2712 VRB03KT 2SM FU BKN003
     FM261700 25004KT 5SM FU SCT005
     FM262100 24006KT P6SM SCT250
     FM270600 VRB04KT P6SM BKN250=

USA.gov is the U.S. government's official web portal to all federal, state and local government web resources and services.